sensor_id;sensor_type;location;lat;lon;timestamp;temperature;humidity
63051;SHT30;49136;47.416;19.402;2024-02-16T00:01:34;6.09;95.30
63051;SHT30;49136;47.416;19.402;2024-02-16T00:04:01;6.05;95.52
63051;SHT30;49136;47.416;19.402;2024-02-16T00:06:26;6.05;95.88
63051;SHT30;49136;47.416;19.402;2024-02-16T00:08:52;6.05;96.17
63051;SHT30;49136;47.416;19.402;2024-02-16T00:11:17;6.09;96.29
63051;SHT30;49136;47.416;19.402;2024-02-16T00:13:43;6.08;96.51
63051;SHT30;49136;47.416;19.402;2024-02-16T00:16:08;6.06;96.54
63051;SHT30;49136;47.416;19.402;2024-02-16T00:18:33;6.08;96.88
63051;SHT30;49136;47.416;19.402;2024-02-16T00:20:59;6.06;96.91
63051;SHT30;49136;47.416;19.402;2024-02-16T00:23:24;6.11;96.60
63051;SHT30;49136;47.416;19.402;2024-02-16T00:25:50;6.06;96.41
63051;SHT30;49136;47.416;19.402;2024-02-16T00:28:16;6.08;96.28
63051;SHT30;49136;47.416;19.402;2024-02-16T00:30:41;6.08;96.38
63051;SHT30;49136;47.416;19.402;2024-02-16T00:33:07;6.14;96.18
63051;SHT30;49136;47.416;19.402;2024-02-16T00:35:32;6.09;96.31
63051;SHT30;49136;47.416;19.402;2024-02-16T00:37:59;6.12;96.08
63051;SHT30;49136;47.416;19.402;2024-02-16T00:40:24;6.18;95.77
63051;SHT30;49136;47.416;19.402;2024-02-16T00:42:51;6.08;96.09
63051;SHT30;49136;47.416;19.402;2024-02-16T00:45:17;6.05;96.13
63051;SHT30;49136;47.416;19.402;2024-02-16T00:47:42;6.08;95.97
63051;SHT30;49136;47.416;19.402;2024-02-16T00:50:10;6.01;95.98
63051;SHT30;49136;47.416;19.402;2024-02-16T00:52:36;6.01;96.14
63051;SHT30;49136;47.416;19.402;2024-02-16T00:55:02;6.06;96.13
63051;SHT30;49136;47.416;19.402;2024-02-16T00:57:29;6.05;96.10
63051;SHT30;49136;47.416;19.402;2024-02-16T00:59:54;5.95;96.43
63051;SHT30;49136;47.416;19.402;2024-02-16T01:02:20;5.98;96.27
63051;SHT30;49136;47.416;19.402;2024-02-16T01:04:46;5.95;96.27
63051;SHT30;49136;47.416;19.402;2024-02-16T01:07:12;5.95;96.52
63051;SHT30;49136;47.416;19.402;2024-02-16T01:09:37;5.98;96.40
63051;SHT30;49136;47.416;19.402;2024-02-16T01:12:03;5.99;96.48
63051;SHT30;49136;47.416;19.402;2024-02-16T01:14:28;5.94;96.73
63051;SHT30;49136;47.416;19.402;2024-02-16T01:16:53;5.95;96.89
63051;SHT30;49136;47.416;19.402;2024-02-16T01:19:19;5.91;97.01
63051;SHT30;49136;47.416;19.402;2024-02-16T01:21:44;5.87;97.20
63051;SHT30;49136;47.416;19.402;2024-02-16T01:24:12;5.83;97.44
63051;SHT30;49136;47.416;19.402;2024-02-16T01:26:41;5.81;97.23
63051;SHT30;49136;47.416;19.402;2024-02-16T01:29:07;5.80;97.31
63051;SHT30;49136;47.416;19.402;2024-02-16T01:31:32;5.78;97.44
63051;SHT30;49136;47.416;19.402;2024-02-16T01:33:57;5.84;97.06
63051;SHT30;49136;47.416;19.402;2024-02-16T01:36:23;5.83;97.21
63051;SHT30;49136;47.416;19.402;2024-02-16T01:38:48;5.77;97.36
63051;SHT30;49136;47.416;19.402;2024-02-16T01:41:14;5.74;97.39
63051;SHT30;49136;47.416;19.402;2024-02-16T01:43:40;5.71;97.52
63051;SHT30;49136;47.416;19.402;2024-02-16T01:46:05;5.74;97.25
63051;SHT30;49136;47.416;19.402;2024-02-16T01:48:31;5.71;97.31
63051;SHT30;49136;47.416;19.402;2024-02-16T01:50:57;5.73;97.33
63051;SHT30;49136;47.416;19.402;2024-02-16T01:53:23;5.66;97.47
63051;SHT30;49136;47.416;19.402;2024-02-16T01:55:48;5.71;97.38
63051;SHT30;49136;47.416;19.402;2024-02-16T01:58:14;5.67;97.33
63051;SHT30;49136;47.416;19.402;2024-02-16T02:00:40;5.59;97.54
63051;SHT30;49136;47.416;19.402;2024-02-16T02:03:06;5.67;97.27
63051;SHT30;49136;47.416;19.402;2024-02-16T02:05:32;5.66;97.43
63051;SHT30;49136;47.416;19.402;2024-02-16T02:07:58;5.67;97.43
63051;SHT30;49136;47.416;19.402;2024-02-16T02:10:23;5.60;97.61
63051;SHT30;49136;47.416;19.402;2024-02-16T02:12:49;5.62;97.81
63051;SHT30;49136;47.416;19.402;2024-02-16T02:15:14;5.66;97.49
63051;SHT30;49136;47.416;19.402;2024-02-16T02:17:40;5.60;97.74
63051;SHT30;49136;47.416;19.402;2024-02-16T02:20:06;5.59;97.72
63051;SHT30;49136;47.416;19.402;2024-02-16T02:22:37;5.64;97.75
63051;SHT30;49136;47.416;19.402;2024-02-16T02:25:03;5.56;97.82
63051;SHT30;49136;47.416;19.402;2024-02-16T02:27:29;5.54;98.10
63051;SHT30;49136;47.416;19.402;2024-02-16T02:29:54;5.59;97.55
63051;SHT30;49136;47.416;19.402;2024-02-16T02:32:19;5.54;97.46
63051;SHT30;49136;47.416;19.402;2024-02-16T02:34:45;5.54;97.76
63051;SHT30;49136;47.416;19.402;2024-02-16T02:37:10;5.66;97.50
63051;SHT30;49136;47.416;19.402;2024-02-16T02:39:36;5.56;97.90
63051;SHT30;49136;47.416;19.402;2024-02-16T02:42:01;5.53;97.73
63051;SHT30;49136;47.416;19.402;2024-02-16T02:44:26;5.49;98.07
63051;SHT30;49136;47.416;19.402;2024-02-16T02:46:52;5.50;98.03
63051;SHT30;49136;47.416;19.402;2024-02-16T02:49:18;5.49;98.10
63051;SHT30;49136;47.416;19.402;2024-02-16T02:51:44;5.43;98.19
63051;SHT30;49136;47.416;19.402;2024-02-16T02:54:09;5.39;98.19
63051;SHT30;49136;47.416;19.402;2024-02-16T02:56:35;5.39;98.30
63051;SHT30;49136;47.416;19.402;2024-02-16T02:59:00;5.36;98.26
63051;SHT30;49136;47.416;19.402;2024-02-16T03:01:26;5.36;98.38
63051;SHT30;49136;47.416;19.402;2024-02-16T03:03:51;5.35;98.46
63051;SHT30;49136;47.416;19.402;2024-02-16T03:06:18;5.29;98.60
63051;SHT30;49136;47.416;19.402;2024-02-16T03:08:43;5.38;98.22
63051;SHT30;49136;47.416;19.402;2024-02-16T03:11:09;5.29;98.58
63051;SHT30;49136;47.416;19.402;2024-02-16T03:13:34;5.28;98.70
63051;SHT30;49136;47.416;19.402;2024-02-16T03:16:00;5.18;98.98
63051;SHT30;49136;47.416;19.402;2024-02-16T03:18:29;5.07;99.50
63051;SHT30;49136;47.416;19.402;2024-02-16T03:20:55;5.05;99.47
63051;SHT30;49136;47.416;19.402;2024-02-16T03:23:20;5.00;99.55
63051;SHT30;49136;47.416;19.402;2024-02-16T03:25:46;4.91;99.77
63051;SHT30;49136;47.416;19.402;2024-02-16T03:28:12;4.76;99.99
63051;SHT30;49136;47.416;19.402;2024-02-16T03:30:38;4.68;99.99
63051;SHT30;49136;47.416;19.402;2024-02-16T03:33:04;4.58;99.99
63051;SHT30;49136;47.416;19.402;2024-02-16T03:35:29;4.60;99.99
63051;SHT30;49136;47.416;19.402;2024-02-16T03:37:55;4.49;99.99
63051;SHT30;49136;47.416;19.402;2024-02-16T03:40:22;4.41;99.99
63051;SHT30;49136;47.416;19.402;2024-02-16T03:42:48;4.37;99.99
63051;SHT30;49136;47.416;19.402;2024-02-16T03:45:13;4.30;99.99
63051;SHT30;49136;47.416;19.402;2024-02-16T03:47:42;4.21;99.99
63051;SHT30;49136;47.416;19.402;2024-02-16T03:50:08;4.11;99.99
63051;SHT30;49136;47.416;19.402;2024-02-16T03:52:33;4.10;99.99
63051;SHT30;49136;47.416;19.402;2024-02-16T03:54:59;4.06;99.99
63051;SHT30;49136;47.416;19.402;2024-02-16T03:57:25;4.06;99.99
63051;SHT30;49136;47.416;19.402;2024-02-16T03:59:50;4.01;99.99
63051;SHT30;49136;47.416;19.402;2024-02-16T04:02:16;3.92;99.99
63051;SHT30;49136;47.416;19.402;2024-02-16T04:04:41;3.82;99.99
63051;SHT30;49136;47.416;19.402;2024-02-16T04:07:07;3.81;99.99
63051;SHT30;49136;47.416;19.402;2024-02-16T04:09:33;3.82;99.99
63051;SHT30;49136;47.416;19.402;2024-02-16T04:12:00;3.76;99.99
63051;SHT30;49136;47.416;19.402;2024-02-16T04:14:25;3.75;99.99
63051;SHT30;49136;47.416;19.402;2024-02-16T04:16:50;3.75;99.99
63051;SHT30;49136;47.416;19.402;2024-02-16T04:19:17;3.64;99.99
63051;SHT30;49136;47.416;19.402;2024-02-16T04:21:42;3.65;99.99
63051;SHT30;49136;47.416;19.402;2024-02-16T04:24:07;3.54;99.99
63051;SHT30;49136;47.416;19.402;2024-02-16T04:26:33;3.57;99.99
63051;SHT30;49136;47.416;19.402;2024-02-16T04:28:59;3.50;99.99
63051;SHT30;49136;47.416;19.402;2024-02-16T04:31:24;3.48;99.99
63051;SHT30;49136;47.416;19.402;2024-02-16T04:33:49;3.37;99.99
63051;SHT30;49136;47.416;19.402;2024-02-16T04:36:16;3.31;99.99
63051;SHT30;49136;47.416;19.402;2024-02-16T04:38:41;3.37;99.99
63051;SHT30;49136;47.416;19.402;2024-02-16T04:41:06;3.37;99.99
63051;SHT30;49136;47.416;19.402;2024-02-16T04:43:33;3.31;99.99
63051;SHT30;49136;47.416;19.402;2024-02-16T04:45:58;3.33;99.99
63051;SHT30;49136;47.416;19.402;2024-02-16T04:48:24;3.28;99.99
63051;SHT30;49136;47.416;19.402;2024-02-16T04:50:50;3.26;99.99
63051;SHT30;49136;47.416;19.402;2024-02-16T04:53:16;3.19;99.99
63051;SHT30;49136;47.416;19.402;2024-02-16T04:55:42;3.10;99.99
63051;SHT30;49136;47.416;19.402;2024-02-16T04:58:07;3.03;99.99
63051;SHT30;49136;47.416;19.402;2024-02-16T05:00:37;3.03;99.99
63051;SHT30;49136;47.416;19.402;2024-02-16T05:03:03;3.02;99.99
63051;SHT30;49136;47.416;19.402;2024-02-16T05:05:29;2.95;99.99
63051;SHT30;49136;47.416;19.402;2024-02-16T05:07:56;2.89;99.99
63051;SHT30;49136;47.416;19.402;2024-02-16T05:10:21;2.89;99.99
63051;SHT30;49136;47.416;19.402;2024-02-16T05:12:47;2.82;99.99
63051;SHT30;49136;47.416;19.402;2024-02-16T05:15:12;2.79;99.99
63051;SHT30;49136;47.416;19.402;2024-02-16T05:17:39;2.65;99.99
63051;SHT30;49136;47.416;19.402;2024-02-16T05:20:11;2.61;99.99
63051;SHT30;49136;47.416;19.402;2024-02-16T05:22:44;2.62;99.99
63051;SHT30;49136;47.416;19.402;2024-02-16T05:25:14;2.60;99.99
63051;SHT30;49136;47.416;19.402;2024-02-16T05:27:40;2.53;99.99
63051;SHT30;49136;47.416;19.402;2024-02-16T05:30:06;2.54;99.99
63051;SHT30;49136;47.416;19.402;2024-02-16T05:32:37;2.41;99.99
63051;SHT30;49136;47.416;19.402;2024-02-16T05:35:07;2.51;99.99
63051;SHT30;49136;47.416;19.402;2024-02-16T05:37:46;2.43;99.99
63051;SHT30;49136;47.416;19.402;2024-02-16T05:40:17;2.50;99.99
63051;SHT30;49136;47.416;19.402;2024-02-16T05:42:54;2.34;99.99
63051;SHT30;49136;47.416;19.402;2024-02-16T05:45:23;2.32;99.99
63051;SHT30;49136;47.416;19.402;2024-02-16T05:47:49;2.34;99.99
63051;SHT30;49136;47.416;19.402;2024-02-16T05:50:15;2.39;99.99
63051;SHT30;49136;47.416;19.402;2024-02-16T05:52:41;2.40;99.99
63051;SHT30;49136;47.416;19.402;2024-02-16T05:55:11;2.34;99.99
63051;SHT30;49136;47.416;19.402;2024-02-16T05:57:37;2.32;99.99
63051;SHT30;49136;47.416;19.402;2024-02-16T06:00:05;2.34;99.99
63051;SHT30;49136;47.416;19.402;2024-02-16T06:02:31;2.37;99.99
63051;SHT30;49136;47.416;19.402;2024-02-16T06:04:57;2.37;99.99
63051;SHT30;49136;47.416;19.402;2024-02-16T06:07:22;2.36;99.99
63051;SHT30;49136;47.416;19.402;2024-02-16T06:09:48;2.32;99.99
63051;SHT30;49136;47.416;19.402;2024-02-16T06:12:13;2.37;99.99
63051;SHT30;49136;47.416;19.402;2024-02-16T06:14:41;2.43;99.99
63051;SHT30;49136;47.416;19.402;2024-02-16T06:17:06;2.43;99.99
63051;SHT30;49136;47.416;19.402;2024-02-16T06:19:33;2.48;99.99
63051;SHT30;49136;47.416;19.402;2024-02-16T06:21:58;2.53;99.99
63051;SHT30;49136;47.416;19.402;2024-02-16T06:24:24;2.54;99.99
63051;SHT30;49136;47.416;19.402;2024-02-16T06:26:50;2.51;99.99
63051;SHT30;49136;47.416;19.402;2024-02-16T06:29:18;2.51;99.99
63051;SHT30;49136;47.416;19.402;2024-02-16T06:31:47;2.57;99.99
63051;SHT30;49136;47.416;19.402;2024-02-16T06:34:13;2.62;99.99
63051;SHT30;49136;47.416;19.402;2024-02-16T06:36:39;2.72;99.99
63051;SHT30;49136;47.416;19.402;2024-02-16T06:39:04;2.72;99.99
63051;SHT30;49136;47.416;19.402;2024-02-16T06:41:30;2.78;99.99
63051;SHT30;49136;47.416;19.402;2024-02-16T06:43:55;2.88;99.99
63051;SHT30;49136;47.416;19.402;2024-02-16T06:46:20;2.89;99.99
63051;SHT30;49136;47.416;19.402;2024-02-16T06:48:47;3.03;99.99
63051;SHT30;49136;47.416;19.402;2024-02-16T06:51:13;3.16;99.99
63051;SHT30;49136;47.416;19.402;2024-02-16T06:53:38;3.22;99.99
63051;SHT30;49136;47.416;19.402;2024-02-16T06:56:03;3.37;99.99
63051;SHT30;49136;47.416;19.402;2024-02-16T06:58:29;3.45;99.99
63051;SHT30;49136;47.416;19.402;2024-02-16T07:00:55;3.52;99.99
63051;SHT30;49136;47.416;19.402;2024-02-16T07:03:20;3.62;99.97
63051;SHT30;49136;47.416;19.402;2024-02-16T07:05:45;3.72;99.76
63051;SHT30;49136;47.416;19.402;2024-02-16T07:08:11;3.79;99.47
63051;SHT30;49136;47.416;19.402;2024-02-16T07:10:36;3.90;99.40
63051;SHT30;49136;47.416;19.402;2024-02-16T07:13:02;3.90;98.47
63051;SHT30;49136;47.416;19.402;2024-02-16T07:15:29;3.97;98.59
63051;SHT30;49136;47.416;19.402;2024-02-16T07:17:54;4.03;98.22
63051;SHT30;49136;47.416;19.402;2024-02-16T07:20:19;4.18;97.78
63051;SHT30;49136;47.416;19.402;2024-02-16T07:22:45;4.35;97.38
63051;SHT30;49136;47.416;19.402;2024-02-16T07:25:16;4.44;96.72
63051;SHT30;49136;47.416;19.402;2024-02-16T07:27:42;4.51;96.08
63051;SHT30;49136;47.416;19.402;2024-02-16T07:30:08;4.65;95.79
63051;SHT30;49136;47.416;19.402;2024-02-16T07:32:39;4.75;95.50
63051;SHT30;49136;47.416;19.402;2024-02-16T07:35:04;4.91;94.72
63051;SHT30;49136;47.416;19.402;2024-02-16T07:37:30;5.01;94.19
63051;SHT30;49136;47.416;19.402;2024-02-16T07:39:55;5.17;93.74
63051;SHT30;49136;47.416;19.402;2024-02-16T07:42:21;5.27;93.12
63051;SHT30;49136;47.416;19.402;2024-02-16T07:44:46;5.43;92.91
63051;SHT30;49136;47.416;19.402;2024-02-16T07:47:11;5.50;92.23
63051;SHT30;49136;47.416;19.402;2024-02-16T07:49:38;5.64;92.46
63051;SHT30;49136;47.416;19.402;2024-02-16T07:52:05;5.87;91.63
63051;SHT30;49136;47.416;19.402;2024-02-16T07:54:30;5.99;90.90
63051;SHT30;49136;47.416;19.402;2024-02-16T07:56:56;6.14;90.90
63051;SHT30;49136;47.416;19.402;2024-02-16T07:59:21;6.25;90.37
63051;SHT30;49136;47.416;19.402;2024-02-16T08:01:48;6.46;89.55
63051;SHT30;49136;47.416;19.402;2024-02-16T08:04:14;6.53;88.65
63051;SHT30;49136;47.416;19.402;2024-02-16T08:06:39;6.74;88.33
63051;SHT30;49136;47.416;19.402;2024-02-16T08:09:04;6.92;87.94
63051;SHT30;49136;47.416;19.402;2024-02-16T08:11:31;6.91;87.39
63051;SHT30;49136;47.416;19.402;2024-02-16T08:13:57;7.19;86.76
63051;SHT30;49136;47.416;19.402;2024-02-16T08:16:26;7.24;86.04
63051;SHT30;49136;47.416;19.402;2024-02-16T08:18:55;7.59;86.05
63051;SHT30;49136;47.416;19.402;2024-02-16T08:21:20;7.71;85.16
63051;SHT30;49136;47.416;19.402;2024-02-16T08:23:46;7.65;84.08
63051;SHT30;49136;47.416;19.402;2024-02-16T08:26:11;7.96;84.40
63051;SHT30;49136;47.416;19.402;2024-02-16T08:28:37;8.06;82.82
63051;SHT30;49136;47.416;19.402;2024-02-16T08:31:04;8.33;82.87
63051;SHT30;49136;47.416;19.402;2024-02-16T08:33:29;8.66;82.72
63051;SHT30;49136;47.416;19.402;2024-02-16T08:35:55;8.96;81.93
63051;SHT30;49136;47.416;19.402;2024-02-16T08:38:20;8.93;81.30
63051;SHT30;49136;47.416;19.402;2024-02-16T08:40:46;9.07;78.73
63051;SHT30;49136;47.416;19.402;2024-02-16T08:43:13;9.22;78.78
63051;SHT30;49136;47.416;19.402;2024-02-16T08:45:38;9.46;77.46
63051;SHT30;49136;47.416;19.402;2024-02-16T08:48:04;9.70;76.63
63051;SHT30;49136;47.416;19.402;2024-02-16T08:50:29;9.62;76.01
63051;SHT30;49136;47.416;19.402;2024-02-16T08:52:55;9.87;76.48
63051;SHT30;49136;47.416;19.402;2024-02-16T08:55:21;9.83;72.37
63051;SHT30;49136;47.416;19.402;2024-02-16T08:57:46;9.87;72.05
63051;SHT30;49136;47.416;19.402;2024-02-16T09:00:12;10.16;71.86
63051;SHT30;49136;47.416;19.402;2024-02-16T09:02:38;10.33;71.56
63051;SHT30;49136;47.416;19.402;2024-02-16T09:05:04;10.22;69.92
63051;SHT30;49136;47.416;19.402;2024-02-16T09:07:30;10.16;70.33
63051;SHT30;49136;47.416;19.402;2024-02-16T09:09:58;10.18;70.36
63051;SHT30;49136;47.416;19.402;2024-02-16T09:12:23;10.46;71.93
63051;SHT30;49136;47.416;19.402;2024-02-16T09:14:48;10.66;71.16
63051;SHT30;49136;47.416;19.402;2024-02-16T09:17:14;10.84;71.56
63051;SHT30;49136;47.416;19.402;2024-02-16T09:19:40;10.87;70.60
63051;SHT30;49136;47.416;19.402;2024-02-16T09:22:05;10.94;70.24
63051;SHT30;49136;47.416;19.402;2024-02-16T09:24:32;10.84;71.76
63051;SHT30;49136;47.416;19.402;2024-02-16T09:26:59;10.87;71.21
63051;SHT30;49136;47.416;19.402;2024-02-16T09:29:28;10.98;71.09
63051;SHT30;49136;47.416;19.402;2024-02-16T09:31:54;11.14;70.68
63051;SHT30;49136;47.416;19.402;2024-02-16T09:34:19;10.97;70.36
63051;SHT30;49136;47.416;19.402;2024-02-16T09:36:46;10.87;71.45
63051;SHT30;49136;47.416;19.402;2024-02-16T09:39:11;11.29;70.81
63051;SHT30;49136;47.416;19.402;2024-02-16T09:41:41;11.43;70.06
63051;SHT30;49136;47.416;19.402;2024-02-16T09:44:07;11.44;69.24
63051;SHT30;49136;47.416;19.402;2024-02-16T09:46:33;11.61;69.83
63051;SHT30;49136;47.416;19.402;2024-02-16T09:49:02;11.42;68.32
63051;SHT30;49136;47.416;19.402;2024-02-16T09:51:28;11.37;69.69
63051;SHT30;49136;47.416;19.402;2024-02-16T09:53:54;11.68;70.01
63051;SHT30;49136;47.416;19.402;2024-02-16T09:56:25;11.44;69.32
63051;SHT30;49136;47.416;19.402;2024-02-16T09:58:51;11.53;69.26
63051;SHT30;49136;47.416;19.402;2024-02-16T10:01:18;11.63;69.71
63051;SHT30;49136;47.416;19.402;2024-02-16T10:03:45;11.54;67.79
63051;SHT30;49136;47.416;19.402;2024-02-16T10:06:10;11.99;68.69
63051;SHT30;49136;47.416;19.402;2024-02-16T10:08:53;12.06;69.62
63051;SHT30;49136;47.416;19.402;2024-02-16T10:11:20;12.61;67.54
63051;SHT30;49136;47.416;19.402;2024-02-16T10:14:03;12.36;66.46
63051;SHT30;49136;47.416;19.402;2024-02-16T10:16:29;12.12;67.56
63051;SHT30;49136;47.416;19.402;2024-02-16T10:18:56;12.20;68.56
63051;SHT30;49136;47.416;19.402;2024-02-16T10:21:29;11.84;67.59
63051;SHT30;49136;47.416;19.402;2024-02-16T10:26:29;12.33;69.36
63051;SHT30;49136;47.416;19.402;2024-02-16T10:28:56;12.68;69.18
63051;SHT30;49136;47.416;19.402;2024-02-16T10:31:25;12.48;67.32
63051;SHT30;49136;47.416;19.402;2024-02-16T10:33:59;12.53;67.79
63051;SHT30;49136;47.416;19.402;2024-02-16T10:36:27;12.68;68.41
63051;SHT30;49136;47.416;19.402;2024-02-16T10:38:54;12.99;67.30
63051;SHT30;49136;47.416;19.402;2024-02-16T10:41:23;13.16;66.97
63051;SHT30;49136;47.416;19.402;2024-02-16T10:43:52;12.74;67.33
63051;SHT30;49136;47.416;19.402;2024-02-16T10:46:19;12.64;67.41
63051;SHT30;49136;47.416;19.402;2024-02-16T10:48:45;12.88;66.45
63051;SHT30;49136;47.416;19.402;2024-02-16T10:51:11;12.99;67.13
63051;SHT30;49136;47.416;19.402;2024-02-16T10:53:38;13.28;66.36
63051;SHT30;49136;47.416;19.402;2024-02-16T10:56:06;13.64;66.05
63051;SHT30;49136;47.416;19.402;2024-02-16T10:58:32;13.54;66.23
63051;SHT30;49136;47.416;19.402;2024-02-16T11:01:08;12.55;66.47
63051;SHT30;49136;47.416;19.402;2024-02-16T11:03:33;13.12;67.85
63051;SHT30;49136;47.416;19.402;2024-02-16T11:05:59;13.31;68.00
63051;SHT30;49136;47.416;19.402;2024-02-16T11:08:25;13.17;65.77
63051;SHT30;49136;47.416;19.402;2024-02-16T11:11:02;13.14;66.48
63051;SHT30;49136;47.416;19.402;2024-02-16T11:13:33;13.20;66.28
63051;SHT30;49136;47.416;19.402;2024-02-16T11:16:06;13.62;65.60
63051;SHT30;49136;47.416;19.402;2024-02-16T11:18:36;13.37;66.22
63051;SHT30;49136;47.416;19.402;2024-02-16T11:21:03;13.79;65.87
63051;SHT30;49136;47.416;19.402;2024-02-16T11:23:30;13.99;66.09
63051;SHT30;49136;47.416;19.402;2024-02-16T11:28:33;13.44;65.46
63051;SHT30;49136;47.416;19.402;2024-02-16T11:31:00;13.04;66.45
63051;SHT30;49136;47.416;19.402;2024-02-16T11:33:27;13.51;68.12
63051;SHT30;49136;47.416;19.402;2024-02-16T11:35:57;13.66;66.17
63051;SHT30;49136;47.416;19.402;2024-02-16T11:38:24;14.25;64.94
63051;SHT30;49136;47.416;19.402;2024-02-16T11:41:07;13.72;64.63
63051;SHT30;49136;47.416;19.402;2024-02-16T11:43:33;13.43;64.95
63051;SHT30;49136;47.416;19.402;2024-02-16T11:45:59;13.65;66.58
63051;SHT30;49136;47.416;19.402;2024-02-16T11:48:26;13.59;65.97
63051;SHT30;49136;47.416;19.402;2024-02-16T11:51:00;13.72;66.05
63051;SHT30;49136;47.416;19.402;2024-02-16T11:53:27;13.55;66.35
63051;SHT30;49136;47.416;19.402;2024-02-16T11:55:52;13.80;66.63
63051;SHT30;49136;47.416;19.402;2024-02-16T11:58:18;13.78;67.11
63051;SHT30;49136;47.416;19.402;2024-02-16T12:00:47;13.82;66.56
63051;SHT30;49136;47.416;19.402;2024-02-16T12:03:24;14.10;65.48
63051;SHT30;49136;47.416;19.402;2024-02-16T12:05:57;14.24;66.50
63051;SHT30;49136;47.416;19.402;2024-02-16T12:08:23;13.51;66.01
63051;SHT30;49136;47.416;19.402;2024-02-16T12:10:50;13.82;65.77
63051;SHT30;49136;47.416;19.402;2024-02-16T12:13:19;13.66;67.11
63051;SHT30;49136;47.416;19.402;2024-02-16T12:15:49;13.76;65.86
63051;SHT30;49136;47.416;19.402;2024-02-16T12:18:24;13.64;66.64
63051;SHT30;49136;47.416;19.402;2024-02-16T12:21:04;13.66;67.10
63051;SHT30;49136;47.416;19.402;2024-02-16T12:23:33;13.57;66.03
63051;SHT30;49136;47.416;19.402;2024-02-16T12:26:00;13.17;66.65
63051;SHT30;49136;47.416;19.402;2024-02-16T12:28:30;13.47;68.65
63051;SHT30;49136;47.416;19.402;2024-02-16T12:30:59;13.93;67.62
63051;SHT30;49136;47.416;19.402;2024-02-16T12:33:25;13.76;66.15
63051;SHT30;49136;47.416;19.402;2024-02-16T12:35:51;13.31;67.52
63051;SHT30;49136;47.416;19.402;2024-02-16T12:38:17;13.66;67.16
63051;SHT30;49136;47.416;19.402;2024-02-16T12:40:48;13.71;67.08
63051;SHT30;49136;47.416;19.402;2024-02-16T12:43:13;14.00;67.46
63051;SHT30;49136;47.416;19.402;2024-02-16T12:45:39;14.20;66.38
63051;SHT30;49136;47.416;19.402;2024-02-16T12:48:05;14.12;66.27
63051;SHT30;49136;47.416;19.402;2024-02-16T12:50:31;13.90;66.86
63051;SHT30;49136;47.416;19.402;2024-02-16T12:52:57;13.83;67.21
63051;SHT30;49136;47.416;19.402;2024-02-16T12:55:23;13.95;66.81
63051;SHT30;49136;47.416;19.402;2024-02-16T12:57:49;13.97;66.02
63051;SHT30;49136;47.416;19.402;2024-02-16T13:00:16;13.58;66.97
63051;SHT30;49136;47.416;19.402;2024-02-16T13:02:42;13.75;67.76
63051;SHT30;49136;47.416;19.402;2024-02-16T13:05:07;13.65;66.73
63051;SHT30;49136;47.416;19.402;2024-02-16T13:07:33;13.41;66.50
63051;SHT30;49136;47.416;19.402;2024-02-16T13:09:59;13.38;67.17
63051;SHT30;49136;47.416;19.402;2024-02-16T13:12:24;13.48;66.50
63051;SHT30;49136;47.416;19.402;2024-02-16T13:14:50;13.69;67.99
63051;SHT30;49136;47.416;19.402;2024-02-16T13:17:15;13.58;67.25
63051;SHT30;49136;47.416;19.402;2024-02-16T13:19:40;13.53;67.77
63051;SHT30;49136;47.416;19.402;2024-02-16T13:22:06;13.66;67.79
63051;SHT30;49136;47.416;19.402;2024-02-16T13:24:33;13.65;68.27
63051;SHT30;49136;47.416;19.402;2024-02-16T13:26:59;13.48;67.68
63051;SHT30;49136;47.416;19.402;2024-02-16T13:29:25;12.84;67.76
63051;SHT30;49136;47.416;19.402;2024-02-16T13:31:50;13.19;68.79
63051;SHT30;49136;47.416;19.402;2024-02-16T13:34:15;13.24;68.53
63051;SHT30;49136;47.416;19.402;2024-02-16T13:36:41;13.02;67.67
63051;SHT30;49136;47.416;19.402;2024-02-16T13:39:07;13.10;68.36
63051;SHT30;49136;47.416;19.402;2024-02-16T13:41:33;12.91;69.41
63051;SHT30;49136;47.416;19.402;2024-02-16T13:43:59;13.27;70.33
63051;SHT30;49136;47.416;19.402;2024-02-16T13:46:24;13.23;68.38
63051;SHT30;49136;47.416;19.402;2024-02-16T13:48:49;13.04;68.59
63051;SHT30;49136;47.416;19.402;2024-02-16T13:51:15;13.12;68.96
63051;SHT30;49136;47.416;19.402;2024-02-16T13:53:40;12.93;69.17
63051;SHT30;49136;47.416;19.402;2024-02-16T13:56:06;12.85;69.77
63051;SHT30;49136;47.416;19.402;2024-02-16T13:58:32;12.79;68.61
63051;SHT30;49136;47.416;19.402;2024-02-16T14:00:59;12.88;69.54
63051;SHT30;49136;47.416;19.402;2024-02-16T14:03:25;12.86;69.84
63051;SHT30;49136;47.416;19.402;2024-02-16T14:05:50;12.82;69.62
63051;SHT30;49136;47.416;19.402;2024-02-16T14:08:17;12.88;70.53
63051;SHT30;49136;47.416;19.402;2024-02-16T14:10:43;12.78;69.92
63051;SHT30;49136;47.416;19.402;2024-02-16T14:13:08;12.79;69.90
63051;SHT30;49136;47.416;19.402;2024-02-16T14:15:35;12.82;70.25
63051;SHT30;49136;47.416;19.402;2024-02-16T14:18:00;12.67;70.73
63051;SHT30;49136;47.416;19.402;2024-02-16T14:20:26;12.58;70.61
63051;SHT30;49136;47.416;19.402;2024-02-16T14:22:51;12.45;69.84
63051;SHT30;49136;47.416;19.402;2024-02-16T14:25:17;12.51;70.25
63051;SHT30;49136;47.416;19.402;2024-02-16T14:27:46;12.50;70.66
63051;SHT30;49136;47.416;19.402;2024-02-16T14:30:12;12.37;69.89
63051;SHT30;49136;47.416;19.402;2024-02-16T14:32:38;12.29;70.20
63051;SHT30;49136;47.416;19.402;2024-02-16T14:35:04;12.25;70.20
63051;SHT30;49136;47.416;19.402;2024-02-16T14:37:31;12.20;70.11
63051;SHT30;49136;47.416;19.402;2024-02-16T14:39:56;12.06;70.39
63051;SHT30;49136;47.416;19.402;2024-02-16T14:42:23;11.98;71.16
63051;SHT30;49136;47.416;19.402;2024-02-16T14:44:49;12.05;71.44
63051;SHT30;49136;47.416;19.402;2024-02-16T14:47:17;12.08;70.73
63051;SHT30;49136;47.416;19.402;2024-02-16T14:49:42;12.06;70.80
63051;SHT30;49136;47.416;19.402;2024-02-16T14:52:08;11.84;70.56
63051;SHT30;49136;47.416;19.402;2024-02-16T14:54:34;11.81;70.75
63051;SHT30;49136;47.416;19.402;2024-02-16T14:57:00;11.74;71.75
63051;SHT30;49136;47.416;19.402;2024-02-16T14:59:25;11.75;70.99
63051;SHT30;49136;47.416;19.402;2024-02-16T15:01:52;11.81;71.35
63051;SHT30;49136;47.416;19.402;2024-02-16T15:04:17;11.71;71.02
63051;SHT30;49136;47.416;19.402;2024-02-16T15:06:43;11.61;71.34
63051;SHT30;49136;47.416;19.402;2024-02-16T15:09:09;11.59;71.43
63051;SHT30;49136;47.416;19.402;2024-02-16T15:11:35;11.51;72.42
63051;SHT30;49136;47.416;19.402;2024-02-16T15:14:01;11.42;71.96
63051;SHT30;49136;47.416;19.402;2024-02-16T15:16:31;11.34;72.16
63051;SHT30;49136;47.416;19.402;2024-02-16T15:18:57;11.23;72.82
63051;SHT30;49136;47.416;19.402;2024-02-16T15:21:23;11.09;73.44
63051;SHT30;49136;47.416;19.402;2024-02-16T15:23:49;11.14;72.52
63051;SHT30;49136;47.416;19.402;2024-02-16T15:26:14;11.11;73.16